Orbital elements of SL-8 DEB
| Launched | 27 November 1975 |
| Flight ended | – |
| Launch site | Plesetsk Missile and Space Complex, Russia |
| Owner | Commonwealth of Independent States (former USSR) |
| NORAD ID | 14801 |
| Date fetched |
Epoch osculation |
Inc. [°] |
Ecc. | RA asc node [hr] |
Arg Peri. [°] |
Mean anom [°] |
Mean motion [rev/day] |
Abs. mag |
| Date fetched |
Epoch osculation |
Inc. [°] |
Ecc. | RA asc node [hr] |
Arg Peri. [°] |
Mean anom [°] |
Mean motion [rev/day] |
Abs. mag |
| 2026 May 03 17:57 | 2026 Apr 30 15:18:14 | 74.0591 | 0.00053 | 13.4928 | 66.2923 | 53.8773 | 14.67263 | – |
| 2026 May 02 17:57 | 2026 Apr 30 15:18:14 | 74.0591 | 0.00053 | 13.4928 | 66.2923 | 53.8773 | 14.67263 | – |
| 2026 May 01 17:56 | 2026 Apr 30 15:18:14 | 74.0591 | 0.00053 | 13.4928 | 66.2923 | 53.8773 | 14.67263 | – |
| 2026 Apr 30 17:56 | 2026 Apr 30 15:18:14 | 74.0591 | 0.00053 | 13.4928 | 66.2923 | 53.8773 | 14.67263 | – |
| 2026 Apr 29 17:57 | 2026 Apr 24 08:31:37 | 74.0581 | 0.00054 | 14.3001 | 84.0640 | 53.8773 | 14.67263 | – |
| 2026 Apr 28 17:56 | 2026 Apr 24 08:31:37 | 74.0581 | 0.00054 | 14.3001 | 84.0640 | 53.8773 | 14.67263 | – |
| 2026 Apr 27 17:58 | 2026 Apr 24 08:31:37 | 74.0581 | 0.00054 | 14.3001 | 84.0640 | 53.8773 | 14.67263 | – |
| 2026 Apr 26 17:58 | 2026 Apr 24 08:31:37 | 74.0581 | 0.00054 | 14.3001 | 84.0640 | 53.8773 | 14.67263 | – |
| 2026 Apr 25 17:58 | 2026 Apr 24 08:31:37 | 74.0581 | 0.00054 | 14.3001 | 84.0640 | 53.8773 | 14.67263 | – |
| 2026 Apr 24 17:59 | 2026 Apr 24 08:31:37 | 74.0581 | 0.00054 | 14.3001 | 84.0640 | 53.8773 | 14.67263 | – |
| 2026 Apr 23 17:57 | 2026 Apr 19 07:15:37 | 74.0578 | 0.00055 | 14.9494 | 97.5927 | 53.8773 | 14.67263 | – |
| 2026 Apr 22 17:57 | 2026 Apr 19 07:15:37 | 74.0578 | 0.00055 | 14.9494 | 97.5927 | 53.8773 | 14.67263 | – |
| 2026 Apr 21 17:57 | 2026 Apr 19 07:15:37 | 74.0578 | 0.00055 | 14.9494 | 97.5927 | 53.8773 | 14.67263 | – |
| 2026 Apr 20 17:57 | 2026 Apr 19 07:15:37 | 74.0578 | 0.00055 | 14.9494 | 97.5927 | 53.8773 | 14.67263 | – |
| 2026 Apr 19 17:58 | 2026 Apr 19 07:15:37 | 74.0578 | 0.00055 | 14.9494 | 97.5927 | 53.8773 | 14.67263 | – |
| 2026 Apr 18 17:56 | 2026 Apr 12 20:22:46 | 74.0578 | 0.00057 | 15.7786 | 114.4817 | 53.8773 | 14.67263 | – |
| 2026 Apr 16 17:57 | 2026 Apr 12 20:22:46 | 74.0578 | 0.00057 | 15.7786 | 114.4817 | 53.8773 | 14.67263 | – |
| 2026 Apr 14 17:57 | 2026 Apr 12 20:22:46 | 74.0578 | 0.00057 | 15.7786 | 114.4817 | 53.8773 | 14.67263 | – |
| 2026 Apr 13 17:57 | 2026 Apr 12 20:22:46 | 74.0578 | 0.00057 | 15.7786 | 114.4817 | 53.8773 | 14.67263 | – |
| 2026 Apr 12 17:57 | 2026 Apr 08 13:05:40 | 74.0578 | 0.00058 | 16.3317 | 125.5060 | 53.8773 | 14.67263 | – |
| 2026 Apr 11 17:57 | 2026 Apr 08 13:05:40 | 74.0578 | 0.00058 | 16.3317 | 125.5060 | 53.8773 | 14.67263 | – |
| 2026 Apr 10 17:58 | 2026 Apr 08 13:05:40 | 74.0578 | 0.00058 | 16.3317 | 125.5060 | 53.8773 | 14.67263 | – |
| 2026 Apr 09 18:01 | 2026 Apr 08 13:05:40 | 74.0578 | 0.00058 | 16.3317 | 125.5060 | 53.8773 | 14.67263 | – |
| 2026 Apr 08 17:57 | 2026 Apr 08 13:05:40 | 74.0578 | 0.00058 | 16.3317 | 125.5060 | 53.8773 | 14.67263 | – |
| 2026 Apr 07 17:57 | 2026 Apr 02 06:15:32 | 74.0567 | 0.00062 | 17.1393 | 140.6835 | 53.8773 | 14.67263 | – |
| 2026 Apr 06 17:57 | 2026 Apr 02 06:15:32 | 74.0567 | 0.00062 | 17.1393 | 140.6835 | 53.8773 | 14.67263 | – |